Time;durP1;ratioP1;P1;durP2;ratioP2;P2;SDS_P1;SDS_P2;PMS_P1;PMS_P2;Temp;Humidity;BMP_temperature;BMP_pressure;BME280_temperature;BME280_humidity;BME280_pressure;Samples;Min_cycle;Max_cycle;Signal;HPM_P1;HPM_P2
2021/05/03 00:02:07;;;;;;;17.08;13.40;;;;;;;;;;5133770;27;20047;-67
2021/05/03 00:04:33;;;;;;;16.15;11.63;;;;;;;;;;5142812;27;20134;-68
2021/05/03 00:07:00;;;;;;;14.00;11.57;;;;;;;;;;5154999;27;20076;-68
2021/05/03 00:09:26;;;;;;;17.35;12.43;;;;;;;;;;5142030;27;20182;-67
2021/05/03 00:11:53;;;;;;;15.05;11.95;;;;;;;;;;5154657;27;20061;-68
2021/05/03 00:14:19;;;;;;;12.98;11.10;;;;;;;;;;5152121;27;20142;-68
2021/05/03 00:16:45;;;;;;;16.23;11.95;;;;;;;;;;5136437;27;20047;-67
2021/05/03 00:19:11;;;;;;;15.68;12.13;;;;;;;;;;5133298;27;20138;-68
2021/05/03 00:21:37;;;;;;;14.23;11.40;;;;;;;;;;5132868;27;20054;-68
2021/05/03 00:24:04;;;;;;;14.65;11.68;;;;;;;;;;5141936;27;20039;-68
2021/05/03 00:26:30;;;;;;;16.13;13.15;;;;;;;;;;5129488;28;20099;-67
2021/05/03 00:28:57;;;;;;;17.80;13.50;;;;;;;;;;5141780;27;20424;-68
2021/05/03 00:31:23;;;;;;;17.33;13.52;;;;;;;;;;5154595;27;20499;-68
2021/05/03 00:33:49;;;;;;;15.35;11.93;;;;;;;;;;5139979;27;20164;-68
2021/05/03 00:36:15;;;;;;;17.60;12.85;;;;;;;;;;5149886;27;20043;-68
2021/05/03 00:38:41;;;;;;;15.50;12.77;;;;;;;;;;5140750;27;20085;-67
2021/05/03 00:41:07;;;;;;;18.65;13.82;;;;;;;;;;5134995;27;20062;-67
2021/05/03 00:43:33;;;;;;;18.00;14.38;;;;;;;;;;5141634;27;20050;-68
2021/05/03 00:46:00;;;;;;;18.40;13.70;;;;;;;;;;5136996;27;20058;-68
2021/05/03 00:48:26;;;;;;;18.20;13.52;;;;;;;;;;5134959;27;20043;-68
2021/05/03 00:50:52;;;;;;;18.40;14.30;;;;;;;;;;5137459;27;20494;-68
2021/05/03 00:53:18;;;;;;;18.50;13.60;;;;;;;;;;5139944;27;20092;-68
2021/05/03 00:55:44;;;;;;;18.27;15.13;;;;;;;;;;5140846;27;20043;-68
2021/05/03 00:58:12;;;;;;;19.52;14.00;;;;;;;;;;5139424;27;20383;-68
2021/05/03 01:00:38;;;;;;;19.88;14.48;;;;;;;;;;5143233;27;20046;-68
2021/05/03 01:03:06;;;;;;;17.70;13.98;;;;;;;;;;5152823;27;20464;-68
2021/05/03 01:05:33;;;;;;;20.65;14.75;;;;;;;;;;5143743;27;20107;-69
2021/05/03 01:07:59;;;;;;;19.65;15.20;;;;;;;;;;5115915;28;20040;-69
2021/05/03 01:10:26;;;;;;;21.90;15.40;;;;;;;;;;5137034;27;20452;-68
2021/05/03 01:12:53;;;;;;;18.70;14.55;;;;;;;;;;5148965;27;20388;-69
2021/05/03 01:15:23;;;;;;;17.23;13.88;;;;;;;;;;5143562;27;20050;-69
2021/05/03 01:17:55;;;;;;;20.52;15.35;;;;;;;;;;5156605;27;20371;-69
2021/05/03 01:20:23;;;;;;;20.30;14.52;;;;;;;;;;5157049;27;20178;-68
2021/05/03 01:22:54;;;;;;;19.83;14.75;;;;;;;;;;5149779;27;20104;-68
2021/05/03 01:25:20;;;;;;;21.27;15.85;;;;;;;;;;5138216;27;20054;-68
2021/05/03 01:27:46;;;;;;;17.92;13.93;;;;;;;;;;5136230;27;20050;-69
2021/05/03 01:30:13;;;;;;;18.73;15.00;;;;;;;;;;5134752;27;20043;-68
2021/05/03 01:32:39;;;;;;;20.95;16.00;;;;;;;;;;5135605;27;20103;-68
2021/05/03 01:35:07;;;;;;;22.35;16.33;;;;;;;;;;5135833;27;20043;-68
2021/05/03 01:37:33;;;;;;;21.63;16.27;;;;;;;;;;5149942;27;20077;-68
2021/05/03 01:40:00;;;;;;;22.00;15.38;;;;;;;;;;5156198;27;20054;-68
2021/05/03 01:42:26;;;;;;;20.08;15.23;;;;;;;;;;5151091;27;20559;-68
2021/05/03 01:44:56;;;;;;;21.05;15.23;;;;;;;;;;5154600;27;20436;-69
2021/05/03 01:47:22;;;;;;;19.10;14.52;;;;;;;;;;5135262;27;20043;-69
2021/05/03 01:49:48;;;;;;;20.90;15.32;;;;;;;;;;5126357;27;20051;-69
2021/05/03 01:52:14;;;;;;;23.10;17.25;;;;;;;;;;5115784;27;20048;-69
2021/05/03 01:54:40;;;;;;;21.27;15.18;;;;;;;;;;5137705;27;20606;-68
2021/05/03 01:57:08;;;;;;;22.52;16.42;;;;;;;;;;5155055;27;20047;-68
2021/05/03 01:59:34;;;;;;;22.85;17.15;;;;;;;;;;5141440;27;20047;-68
2021/05/03 02:02:01;;;;;;;19.10;14.55;;;;;;;;;;5134134;27;20058;-69
2021/05/03 02:04:27;;;;;;;20.88;16.02;;;;;;;;;;5134846;27;20050;-68
2021/05/03 02:06:53;;;;;;;23.40;17.40;;;;;;;;;;5144936;27;20134;-69
2021/05/03 02:09:19;;;;;;;22.88;17.27;;;;;;;;;;5140345;27;20043;-69
2021/05/03 02:11:45;;;;;;;23.98;17.52;;;;;;;;;;5144201;27;20043;-68
2021/05/03 02:14:12;;;;;;;23.90;16.60;;;;;;;;;;5134779;27;20050;-68
2021/05/03 02:16:38;;;;;;;23.17;17.17;;;;;;;;;;5135921;27;20043;-69
2021/05/03 02:19:04;;;;;;;22.20;15.88;;;;;;;;;;5134628;27;20085;-68
2021/05/03 02:21:30;;;;;;;22.42;16.95;;;;;;;;;;5135286;27;20043;-68
2021/05/03 02:23:56;;;;;;;23.38;15.77;;;;;;;;;;5138149;27;20103;-69
2021/05/03 02:26:22;;;;;;;24.80;16.90;;;;;;;;;;5130938;27;20486;-68
2021/05/03 02:28:50;;;;;;;19.83;15.45;;;;;;;;;;5134851;27;20047;-68
2021/05/03 02:31:17;;;;;;;21.02;16.10;;;;;;;;;;5134843;27;20104;-68
2021/05/03 02:33:43;;;;;;;21.85;16.08;;;;;;;;;;5141012;27;20049;-70
2021/05/03 02:36:09;;;;;;;24.63;18.42;;;;;;;;;;5137305;27;20095;-70
2021/05/03 02:38:35;;;;;;;21.88;16.35;;;;;;;;;;5134865;27;20043;-70
2021/05/03 02:41:01;;;;;;;22.80;17.08;;;;;;;;;;5134832;27;20057;-70
2021/05/03 02:43:27;;;;;;;17.17;12.50;;;;;;;;;;5139683;27;20047;-69
2021/05/03 02:45:53;;;;;;;24.25;16.15;;;;;;;;;;5134639;27;20383;-70
2021/05/03 02:48:20;;;;;;;19.52;15.40;;;;;;;;;;5134390;27;20047;-69
2021/05/03 02:50:46;;;;;;;20.60;15.05;;;;;;;;;;5126035;27;20476;-70
2021/05/03 02:53:12;;;;;;;19.42;14.55;;;;;;;;;;5125919;27;20092;-70
2021/05/03 02:55:38;;;;;;;23.13;16.40;;;;;;;;;;5137170;27;20477;-70
2021/05/03 02:58:04;;;;;;;20.50;14.43;;;;;;;;;;5134278;27;20433;-69
2021/05/03 03:00:32;;;;;;;24.35;17.00;;;;;;;;;;5142235;27;20231;-69
2021/05/03 03:02:58;;;;;;;20.35;14.80;;;;;;;;;;5133945;27;20415;-69
2021/05/03 03:05:25;;;;;;;20.77;15.48;;;;;;;;;;5138092;27;20410;-69
2021/05/03 03:07:52;;;;;;;20.52;15.32;;;;;;;;;;5137570;27;20431;-69
2021/05/03 03:10:18;;;;;;;21.52;15.75;;;;;;;;;;5151527;27;20038;-70
2021/05/03 03:12:44;;;;;;;24.25;16.55;;;;;;;;;;5153360;27;20069;-70
2021/05/03 03:15:13;;;;;;;23.10;16.80;;;;;;;;;;5136920;27;20146;-69
2021/05/03 03:17:39;;;;;;;20.98;14.52;;;;;;;;;;5133753;27;20096;-69
2021/05/03 03:20:06;;;;;;;22.90;16.48;;;;;;;;;;5134209;27;20540;-70
2021/05/03 03:22:34;;;;;;;22.13;15.98;;;;;;;;;;5139718;27;20047;-69
2021/05/03 03:25:00;;;;;;;24.88;15.88;;;;;;;;;;5138745;27;20051;-69
2021/05/03 03:27:26;;;;;;;22.73;15.73;;;;;;;;;;5148720;27;20070;-69
2021/05/03 03:29:52;;;;;;;25.42;17.98;;;;;;;;;;5154764;27;20049;-69
2021/05/03 03:32:18;;;;;;;25.65;18.02;;;;;;;;;;5154436;27;20047;-69
2021/05/03 03:34:44;;;;;;;24.77;16.65;;;;;;;;;;5145361;27;20047;-69
2021/05/03 03:37:10;;;;;;;23.58;17.05;;;;;;;;;;5133562;27;20050;-69
2021/05/03 03:39:37;;;;;;;23.77;16.52;;;;;;;;;;5147924;27;20047;-70
2021/05/03 03:42:03;;;;;;;20.75;14.93;;;;;;;;;;5154820;27;20501;-70
2021/05/03 03:44:29;;;;;;;21.27;15.95;;;;;;;;;;5153636;27;20047;-69
2021/05/03 03:46:55;;;;;;;24.55;17.20;;;;;;;;;;5154717;27;20053;-69
2021/05/03 03:49:22;;;;;;;22.15;15.60;;;;;;;;;;5149568;27;20375;-69
2021/05/03 03:51:48;;;;;;;21.33;15.63;;;;;;;;;;5128304;28;20104;-69
2021/05/03 03:54:14;;;;;;;23.13;17.00;;;;;;;;;;5138687;27;20103;-69
2021/05/03 03:56:40;;;;;;;22.63;16.70;;;;;;;;;;5136012;27;20452;-69
2021/05/03 03:59:09;;;;;;;24.17;16.63;;;;;;;;;;5152447;27;20039;-70
2021/05/03 04:01:36;;;;;;;23.48;16.52;;;;;;;;;;5133176;28;20475;-69
2021/05/03 04:04:03;;;;;;;25.85;17.05;;;;;;;;;;5133078;27;20470;-69
2021/05/03 04:06:40;;;;;;;23.33;15.55;;;;;;;;;;5135666;27;20112;-69
2021/05/03 04:09:09;;;;;;;22.40;15.88;;;;;;;;;;5134448;27;20047;-69
2021/05/03 04:11:52;;;;;;;21.95;15.80;;;;;;;;;;5147675;27;20501;-69
2021/05/03 04:23:00;;;;;;;22.92;16.58;;;;;;;;;;5151490;27;20050;-70
2021/05/03 04:25:32;;;;;;;21.75;15.07;;;;;;;;;;5151994;27;20047;-69
2021/05/03 04:27:58;;;;;;;21.80;15.55;;;;;;;;;;5155222;27;20485;-69
2021/05/03 04:30:25;;;;;;;24.20;17.08;;;;;;;;;;5138014;27;20039;-70
2021/05/03 04:32:51;;;;;;;21.30;15.05;;;;;;;;;;5136601;27;20062;-70
2021/05/03 04:35:17;;;;;;;18.00;14.32;;;;;;;;;;5142685;27;20563;-70
2021/05/03 04:37:43;;;;;;;22.05;15.02;;;;;;;;;;5136788;27;20133;-69
2021/05/03 04:40:10;;;;;;;22.88;15.70;;;;;;;;;;5136343;27;20058;-70
2021/05/03 04:42:36;;;;;;;20.98;14.82;;;;;;;;;;5137606;27;20050;-70
2021/05/03 04:45:03;;;;;;;20.65;14.48;;;;;;;;;;5136934;27;20061;-69
2021/05/03 04:47:30;;;;;;;21.75;15.07;;;;;;;;;;5139276;27;20114;-69
2021/05/03 04:49:56;;;;;;;20.25;14.75;;;;;;;;;;5140999;27;20047;-69
2021/05/03 04:52:22;;;;;;;22.75;14.73;;;;;;;;;;5129222;27;20069;-69
2021/05/03 04:54:48;;;;;;;20.48;14.13;;;;;;;;;;5139913;27;20047;-69
2021/05/03 04:57:14;;;;;;;19.30;14.27;;;;;;;;;;5148095;27;20394;-69
2021/05/03 04:59:40;;;;;;;20.92;15.57;;;;;;;;;;5150039;27;20042;-69
2021/05/03 05:02:05;;;;;;;20.98;15.07;;;;;;;;;;5144320;27;20086;-69
2021/05/03 05:04:32;;;;;;;19.77;14.50;;;;;;;;;;5156587;27;20128;-69
2021/05/03 05:07:00;;;;;;;19.00;14.02;;;;;;;;;;5156759;27;20065;-69
2021/05/03 05:09:26;;;;;;;21.30;14.60;;;;;;;;;;5156739;27;20070;-69
2021/05/03 05:11:52;;;;;;;22.38;15.82;;;;;;;;;;5156659;27;20051;-69
2021/05/03 05:14:18;;;;;;;21.95;16.20;;;;;;;;;;5156996;27;20143;-69
2021/05/03 05:16:44;;;;;;;17.23;13.10;;;;;;;;;;5155687;27;20047;-69
2021/05/03 05:19:10;;;;;;;20.25;14.32;;;;;;;;;;5156888;27;20042;-68
2021/05/03 05:21:37;;;;;;;20.90;13.98;;;;;;;;;;5156534;27;20053;-68
2021/05/03 05:24:05;;;;;;;17.10;12.77;;;;;;;;;;5156181;27;20047;-68
2021/05/03 05:26:31;;;;;;;21.80;15.10;;;;;;;;;;5156641;27;20058;-68
2021/05/03 05:28:57;;;;;;;20.55;13.57;;;;;;;;;;5154146;27;20480;-68
2021/05/03 05:31:23;;;;;;;19.33;14.40;;;;;;;;;;5152512;27;20130;-68
2021/05/03 05:33:49;;;;;;;18.00;13.48;;;;;;;;;;5145252;27;20387;-68
2021/05/03 05:36:15;;;;;;;17.65;13.98;;;;;;;;;;5154082;27;20452;-69
2021/05/03 05:38:42;;;;;;;20.60;14.05;;;;;;;;;;5134636;27;20047;-68
2021/05/03 05:41:09;;;;;;;17.13;13.15;;;;;;;;;;5142908;27;20467;-67
2021/05/03 05:43:35;;;;;;;18.00;12.77;;;;;;;;;;5156608;27;20467;-67
2021/05/03 05:46:01;;;;;;;18.38;14.15;;;;;;;;;;5156150;27;20095;-67
2021/05/03 05:48:27;;;;;;;16.65;12.80;;;;;;;;;;5156900;27;20051;-67
2021/05/03 05:50:53;;;;;;;21.33;14.32;;;;;;;;;;5147098;27;20083;-67
2021/05/03 05:53:19;;;;;;;16.10;12.95;;;;;;;;;;5130776;27;20047;-67
2021/05/03 05:55:46;;;;;;;16.73;13.80;;;;;;;;;;5137668;27;20057;-68
2021/05/03 05:58:12;;;;;;;17.38;13.38;;;;;;;;;;5135294;27;20046;-68
2021/05/03 06:00:38;;;;;;;15.60;12.43;;;;;;;;;;5145189;27;20096;-69
2021/05/03 06:03:04;;;;;;;17.65;13.85;;;;;;;;;;5155785;27;20085;-67
2021/05/03 06:05:30;;;;;;;15.10;11.77;;;;;;;;;;5156326;27;20053;-69
2021/05/03 06:07:56;;;;;;;15.65;12.23;;;;;;;;;;5151103;27;20099;-67
2021/05/03 06:10:22;;;;;;;17.30;13.05;;;;;;;;;;5134913;27;20452;-67
2021/05/03 06:12:49;;;;;;;16.02;12.32;;;;;;;;;;5135185;27;20119;-67
2021/05/03 06:15:15;;;;;;;17.80;13.13;;;;;;;;;;5135045;27;20390;-67
2021/05/03 06:17:41;;;;;;;17.20;13.40;;;;;;;;;;5135262;27;20051;-68
2021/05/03 06:20:09;;;;;;;15.27;12.02;;;;;;;;;;5138542;27;20049;-67
2021/05/03 06:22:35;;;;;;;16.10;12.50;;;;;;;;;;5152780;27;20042;-68
2021/05/03 06:25:01;;;;;;;16.70;13.27;;;;;;;;;;5144868;27;20050;-68
2021/05/03 06:27:28;;;;;;;17.02;13.23;;;;;;;;;;5135830;27;20071;-68
2021/05/03 06:29:55;;;;;;;16.23;12.57;;;;;;;;;;5134017;27;20482;-71
2021/05/03 06:32:21;;;;;;;15.18;12.82;;;;;;;;;;5135833;27;20134;-70
2021/05/03 06:34:47;;;;;;;14.98;12.23;;;;;;;;;;5134045;27;20086;-69
2021/05/03 06:37:13;;;;;;;14.93;12.75;;;;;;;;;;5135419;27;20096;-71
2021/05/03 06:39:42;;;;;;;17.00;12.38;;;;;;;;;;5131152;27;20044;-70
2021/05/03 06:42:08;;;;;;;14.40;11.88;;;;;;;;;;5134306;27;20050;-70
2021/05/03 06:44:34;;;;;;;13.82;11.15;;;;;;;;;;5134961;27;20047;-70
2021/05/03 06:47:02;;;;;;;15.10;12.32;;;;;;;;;;5134305;27;20043;-71
2021/05/03 06:49:28;;;;;;;13.35;10.50;;;;;;;;;;5133624;27;20047;-71
2021/05/03 06:51:54;;;;;;;14.45;10.88;;;;;;;;;;5132899;27;20419;-68
2021/05/03 06:54:20;;;;;;;14.27;11.73;;;;;;;;;;5128483;27;20054;-68
2021/05/03 06:56:46;;;;;;;12.57;10.57;;;;;;;;;;5134085;27;20049;-68
2021/05/03 06:59:12;;;;;;;15.18;11.75;;;;;;;;;;5133743;27;20043;-68
2021/05/03 07:01:38;;;;;;;11.93;10.68;;;;;;;;;;5135008;27;20090;-68
2021/05/03 07:04:05;;;;;;;13.70;11.00;;;;;;;;;;5133345;27;20039;-68
2021/05/03 07:06:32;;;;;;;12.30;10.48;;;;;;;;;;5127926;27;20054;-69
2021/05/03 07:08:58;;;;;;;13.68;10.48;;;;;;;;;;5133517;27;20043;-69
2021/05/03 07:11:28;;;;;;;12.77;9.32;;;;;;;;;;5134079;27;20058;-70
2021/05/03 07:13:54;;;;;;;12.07;9.45;;;;;;;;;;5152658;27;20047;-70
2021/05/03 07:16:20;;;;;;;11.38;9.80;;;;;;;;;;5154894;27;20078;-70
2021/05/03 07:18:46;;;;;;;11.75;9.88;;;;;;;;;;5154541;27;20054;-69
2021/05/03 07:21:13;;;;;;;11.68;9.48;;;;;;;;;;5133802;27;20083;-67
2021/05/03 07:23:40;;;;;;;13.48;9.40;;;;;;;;;;5134045;27;20471;-67
2021/05/03 07:26:07;;;;;;;12.98;9.68;;;;;;;;;;5134167;27;20066;-67
2021/05/03 07:28:33;;;;;;;11.57;9.25;;;;;;;;;;5133913;27;20053;-69
2021/05/03 07:31:00;;;;;;;11.70;9.05;;;;;;;;;;5133749;27;20043;-68
2021/05/03 07:33:26;;;;;;;12.00;9.68;;;;;;;;;;5133776;27;20047;-67
2021/05/03 07:35:53;;;;;;;10.32;8.80;;;;;;;;;;5132876;27;20051;-68
2021/05/03 07:38:20;;;;;;;11.32;8.70;;;;;;;;;;5134043;27;20572;-68
2021/05/03 07:40:46;;;;;;;14.30;10.23;;;;;;;;;;5140776;27;20046;-68
2021/05/03 07:43:12;;;;;;;12.00;8.80;;;;;;;;;;5142008;27;20055;-67
2021/05/03 07:45:38;;;;;;;10.30;8.13;;;;;;;;;;5133248;27;20046;-68
2021/05/03 07:48:05;;;;;;;12.43;9.48;;;;;;;;;;5136869;27;20784;-69
2021/05/03 07:50:31;;;;;;;11.02;8.82;;;;;;;;;;5152106;27;20050;-69
2021/05/03 07:52:58;;;;;;;11.95;8.77;;;;;;;;;;5147940;27;20047;-69
2021/05/03 07:55:26;;;;;;;9.57;8.07;;;;;;;;;;5127625;28;20047;-69
2021/05/03 07:57:52;;;;;;;10.60;9.07;;;;;;;;;;5125034;28;20593;-68
2021/05/03 08:00:19;;;;;;;8.90;7.97;;;;;;;;;;5133213;28;20043;-67
2021/05/03 08:02:45;;;;;;;10.60;8.35;;;;;;;;;;5133306;28;20053;-68
2021/05/03 08:05:12;;;;;;;10.68;8.15;;;;;;;;;;5133093;28;20053;-68
2021/05/03 08:07:38;;;;;;;8.70;7.78;;;;;;;;;;5133380;28;20051;-68
2021/05/03 08:10:05;;;;;;;10.60;8.70;;;;;;;;;;5133291;28;20479;-68
2021/05/03 08:12:32;;;;;;;10.23;8.73;;;;;;;;;;5132986;27;20047;-70
2021/05/03 08:15:01;;;;;;;9.45;7.95;;;;;;;;;;5132948;28;20104;-68
2021/05/03 08:17:27;;;;;;;9.43;7.53;;;;;;;;;;5132941;28;20130;-68
2021/05/03 08:19:53;;;;;;;9.50;7.72;;;;;;;;;;5132819;28;20051;-68
2021/05/03 08:22:19;;;;;;;8.75;7.85;;;;;;;;;;5133143;28;20051;-68
2021/05/03 08:24:45;;;;;;;10.45;7.57;;;;;;;;;;5133535;28;20517;-68
2021/05/03 08:27:10;;;;;;;9.70;7.30;;;;;;;;;;5133035;28;20065;-68
2021/05/03 08:29:37;;;;;;;8.10;6.85;;;;;;;;;;5133052;28;20104;-68
2021/05/03 08:32:04;;;;;;;9.05;7.72;;;;;;;;;;5130994;27;20112;-68
2021/05/03 08:34:30;;;;;;;7.55;6.68;;;;;;;;;;5133028;27;20506;-68
2021/05/03 08:36:57;;;;;;;7.57;6.85;;;;;;;;;;5126680;28;20047;-69
2021/05/03 08:39:24;;;;;;;9.15;6.90;;;;;;;;;;5139473;27;20448;-68
2021/05/03 08:41:51;;;;;;;8.95;6.90;;;;;;;;;;5132743;28;20468;-68
2021/05/03 08:44:17;;;;;;;8.32;6.38;;;;;;;;;;5132645;27;20395;-68
2021/05/03 08:46:46;;;;;;;7.00;6.30;;;;;;;;;;5132846;28;20460;-68
2021/05/03 08:49:18;;;;;;;8.75;6.68;;;;;;;;;;5134849;27;20049;-68
2021/05/03 08:51:48;;;;;;;9.27;6.90;;;;;;;;;;5120959;28;20044;-69
2021/05/03 08:54:20;;;;;;;8.52;6.55;;;;;;;;;;5111584;28;20135;-71
2021/05/03 08:56:46;;;;;;;8.10;6.55;;;;;;;;;;5126532;28;20072;-67
2021/05/03 08:59:12;;;;;;;7.57;6.72;;;;;;;;;;5130738;28;20130;-69
2021/05/03 09:01:39;;;;;;;8.27;6.70;;;;;;;;;;5143772;27;20047;-69
2021/05/03 09:04:07;;;;;;;8.18;6.97;;;;;;;;;;5154501;27;20489;-70
2021/05/03 09:06:33;;;;;;;7.10;6.35;;;;;;;;;;5155976;27;20089;-70
2021/05/03 09:09:06;;;;;;;9.00;6.32;;;;;;;;;;5157121;27;20047;-71
2021/05/03 09:11:34;;;;;;;9.88;6.50;;;;;;;;;;5156815;27;20142;-69
2021/05/03 09:14:07;;;;;;;8.20;6.15;;;;;;;;;;5156933;27;20046;-68
2021/05/03 09:16:33;;;;;;;7.32;6.13;;;;;;;;;;5156820;27;20054;-67
2021/05/03 09:19:01;;;;;;;7.65;6.15;;;;;;;;;;5156497;27;20043;-68
2021/05/03 09:21:31;;;;;;;6.57;5.20;;;;;;;;;;5155276;27;20043;-68
2021/05/03 09:24:07;;;;;;;9.57;5.70;;;;;;;;;;5155667;27;20043;-68
2021/05/03 09:26:35;;;;;;;6.90;5.55;;;;;;;;;;5155677;27;20049;-68
2021/05/03 09:29:32;;;;;;;6.75;5.18;;;;;;;;;;5155729;27;20137;-68
2021/05/03 09:32:10;;;;;;;6.30;5.20;;;;;;;;;;5155352;27;20042;-68
2021/05/03 09:34:37;;;;;;;7.65;5.38;;;;;;;;;;5155648;27;20067;-68
2021/05/03 09:37:25;;;;;;;8.48;5.65;;;;;;;;;;5156519;27;20066;-67
2021/05/03 09:39:53;;;;;;;5.82;4.80;;;;;;;;;;5156916;27;20045;-68
2021/05/03 09:42:19;;;;;;;7.50;5.57;;;;;;;;;;5144917;27;20490;-67
2021/05/03 09:45:05;;;;;;;6.85;5.22;;;;;;;;;;5147230;27;20076;-71
2021/05/03 09:47:32;;;;;;;6.80;5.38;;;;;;;;;;5142239;27;20883;-67
2021/05/03 09:49:58;;;;;;;7.18;5.57;;;;;;;;;;5135509;27;20055;-69
2021/05/03 09:52:25;;;;;;;8.55;6.38;;;;;;;;;;5148872;27;20050;-70
2021/05/03 09:54:51;;;;;;;7.35;5.43;;;;;;;;;;5135955;27;20051;-70
2021/05/03 09:57:18;;;;;;;7.43;5.18;;;;;;;;;;5128818;27;20042;-69
2021/05/03 09:59:45;;;;;;;8.55;5.22;;;;;;;;;;5132387;27;20396;-69
2021/05/03 10:02:17;;;;;;;7.70;5.88;;;;;;;;;;5120705;27;20052;-69
2021/05/03 10:04:51;;;;;;;7.43;4.55;;;;;;;;;;5134861;27;20108;-70
2021/05/03 10:07:19;;;;;;;7.78;5.65;;;;;;;;;;5147426;27;20058;-72
2021/05/03 10:09:49;;;;;;;5.97;4.80;;;;;;;;;;5156437;27;20409;-70
2021/05/03 10:12:16;;;;;;;7.07;5.30;;;;;;;;;;5156024;27;20427;-69
2021/05/03 10:14:43;;;;;;;9.15;5.28;;;;;;;;;;5137478;27;20396;-69
2021/05/03 10:17:10;;;;;;;8.48;4.93;;;;;;;;;;5135668;27;20064;-68
2021/05/03 10:19:36;;;;;;;5.93;4.75;;;;;;;;;;5134490;27;20043;-68
2021/05/03 10:22:03;;;;;;;8.30;4.88;;;;;;;;;;5148109;27;20138;-70
2021/05/03 10:24:29;;;;;;;6.38;4.75;;;;;;;;;;5149523;27;20055;-69
2021/05/03 10:26:57;;;;;;;7.53;5.10;;;;;;;;;;5134673;27;20043;-69
2021/05/03 10:29:28;;;;;;;6.60;4.93;;;;;;;;;;5134494;27;20145;-68
2021/05/03 10:32:04;;;;;;;6.22;4.97;;;;;;;;;;5134658;27;20100;-69
2021/05/03 10:34:44;;;;;;;6.10;4.78;;;;;;;;;;5134314;27;20128;-69
2021/05/03 10:37:39;;;;;;;6.43;4.70;;;;;;;;;;5133271;27;20047;-71
2021/05/03 10:40:08;;;;;;;5.57;4.55;;;;;;;;;;5134653;27;20095;-70
2021/05/03 10:42:35;;;;;;;5.15;4.28;;;;;;;;;;5134375;27;20099;-71
2021/05/03 10:45:12;;;;;;;4.63;3.75;;;;;;;;;;5134362;27;20058;-68
2021/05/03 10:47:41;;;;;;;6.85;4.60;;;;;;;;;;5134342;27;20047;-70
2021/05/03 10:50:40;;;;;;;6.38;4.63;;;;;;;;;;5134082;27;20468;-71
2021/05/03 10:53:26;;;;;;;5.25;3.88;;;;;;;;;;5134396;27;20047;-68
2021/05/03 10:55:54;;;;;;;5.68;4.40;;;;;;;;;;5134392;27;20051;-69
2021/05/03 10:58:21;;;;;;;4.47;3.88;;;;;;;;;;5128101;27;20555;-68
2021/05/03 11:00:56;;;;;;;5.68;3.70;;;;;;;;;;5119026;27;20035;-68
2021/05/03 11:04:08;;;;;;;6.25;4.03;;;;;;;;;;5134268;27;20050;-70
2021/05/03 11:07:10;;;;;;;5.55;3.80;;;;;;;;;;5133893;27;20134;-69
2021/05/03 11:09:39;;;;;;;5.93;4.35;;;;;;;;;;5126152;27;20050;-68
2021/05/03 11:12:30;;;;;;;4.60;3.90;;;;;;;;;;5134070;27;20043;-68
2021/05/03 11:15:13;;;;;;;6.20;3.95;;;;;;;;;;5133784;27;20055;-69
2021/05/03 11:18:15;;;;;;;6.30;4.03;;;;;;;;;;5134040;27;20043;-69
2021/05/03 11:20:59;;;;;;;5.10;3.22;;;;;;;;;;5134137;27;20042;-70
2021/05/03 11:23:28;;;;;;;5.97;3.83;;;;;;;;;;5133900;27;20054;-70
2021/05/03 11:25:54;;;;;;;5.68;4.25;;;;;;;;;;5133283;27;20092;-69
2021/05/03 11:28:23;;;;;;;7.63;4.32;;;;;;;;;;5133400;27;20043;-70
2021/05/03 11:30:55;;;;;;;5.82;3.55;;;;;;;;;;5133396;27;20095;-69
2021/05/03 11:33:32;;;;;;;6.95;4.40;;;;;;;;;;5133866;27;20148;-71
2021/05/03 11:36:07;;;;;;;5.30;3.80;;;;;;;;;;5134018;27;20049;-69
2021/05/03 11:38:46;;;;;;;5.23;3.93;;;;;;;;;;5133848;27;20049;-71
2021/05/03 11:41:24;;;;;;;7.93;5.15;;;;;;;;;;5144503;27;20296;-70
2021/05/03 11:43:56;;;;;;;5.18;3.65;;;;;;;;;;5142623;27;20055;-72
2021/05/03 11:46:31;;;;;;;5.18;3.80;;;;;;;;;;5132673;27;20066;-70
2021/05/03 11:48:59;;;;;;;5.70;3.97;;;;;;;;;;5130875;27;20498;-71
2021/05/03 11:51:25;;;;;;;5.07;4.00;;;;;;;;;;5131842;28;20131;-69
2021/05/03 11:53:52;;;;;;;6.45;4.40;;;;;;;;;;5129382;27;20051;-69
2021/05/03 11:56:23;;;;;;;5.88;4.47;;;;;;;;;;5132127;28;20054;-69
2021/05/03 11:58:51;;;;;;;6.80;4.05;;;;;;;;;;5131229;28;20395;-69
2021/05/03 12:01:19;;;;;;;7.65;4.72;;;;;;;;;;5131652;27;20043;-69
2021/05/03 12:03:47;;;;;;;6.03;4.50;;;;;;;;;;5132314;28;20070;-71
2021/05/03 12:06:34;;;;;;;5.53;3.97;;;;;;;;;;5130069;28;20400;-71
2021/05/03 12:09:00;;;;;;;5.32;4.57;;;;;;;;;;5130981;27;20059;-72
2021/05/03 12:11:26;;;;;;;7.45;3.97;;;;;;;;;;5132385;28;20039;-70
2021/05/03 12:13:56;;;;;;;4.70;4.03;;;;;;;;;;5132891;28;20047;-70
2021/05/03 12:16:32;;;;;;;5.10;4.18;;;;;;;;;;5132549;28;20664;-70
2021/05/03 12:18:59;;;;;;;6.57;4.68;;;;;;;;;;5135086;27;20133;-69
2021/05/03 12:21:25;;;;;;;5.70;3.95;;;;;;;;;;5132227;27;20043;-69
2021/05/03 12:23:53;;;;;;;4.78;3.75;;;;;;;;;;5132332;28;20043;-72
2021/05/03 12:26:19;;;;;;;5.45;3.33;;;;;;;;;;5132333;28;20453;-70
2021/05/03 12:28:47;;;;;;;4.10;2.92;;;;;;;;;;5135632;27;20047;-71
2021/05/03 12:31:13;;;;;;;3.20;2.50;;;;;;;;;;5136925;27;20043;-70
2021/05/03 12:33:39;;;;;;;4.50;3.22;;;;;;;;;;5132147;28;20130;-69
2021/05/03 12:36:10;;;;;;;5.70;3.33;;;;;;;;;;5131866;28;20050;-69
2021/05/03 12:38:36;;;;;;;4.80;3.25;;;;;;;;;;5133884;27;20092;-70
2021/05/03 12:41:04;;;;;;;4.50;3.53;;;;;;;;;;5136161;27;20507;-71
2021/05/03 12:43:33;;;;;;;5.15;3.40;;;;;;;;;;5135124;27;20047;-71
2021/05/03 12:46:04;;;;;;;4.88;3.25;;;;;;;;;;5136369;27;20058;-70
2021/05/03 12:48:35;;;;;;;3.90;3.10;;;;;;;;;;5137132;27;20050;-69
2021/05/03 12:54:00;;;;;;;5.13;3.42;;;;;;;;;;5131879;27;20505;-70
2021/05/03 12:56:33;;;;;;;4.85;3.35;;;;;;;;;;5132899;27;20073;-71
2021/05/03 12:59:05;;;;;;;5.00;3.70;;;;;;;;;;5132140;27;20060;-70
2021/05/03 13:01:37;;;;;;;4.57;3.22;;;;;;;;;;5130863;27;20039;-69
2021/05/03 13:04:14;;;;;;;4.88;3.70;;;;;;;;;;5137113;27;20047;-70
2021/05/03 13:07:06;;;;;;;5.30;3.65;;;;;;;;;;5135241;27;20054;-69
2021/05/03 13:09:51;;;;;;;4.63;3.35;;;;;;;;;;5134994;27;20126;-69
2021/05/03 13:29:36;;;;;;;4.47;3.05;;;;;;;;;;5127828;27;20483;-70
2021/05/03 13:32:02;;;;;;;4.70;3.30;;;;;;;;;;5136223;27;20047;-70
2021/05/03 13:34:29;;;;;;;6.38;3.30;;;;;;;;;;5135598;27;20047;-70
2021/05/03 13:36:55;;;;;;;6.68;2.80;;;;;;;;;;5135086;27;20092;-70
2021/05/03 13:39:22;;;;;;;4.00;2.78;;;;;;;;;;5136621;27;20075;-69
2021/05/03 13:41:49;;;;;;;4.65;3.15;;;;;;;;;;5138777;27;20055;-68
2021/05/03 13:44:16;;;;;;;3.28;2.78;;;;;;;;;;5134393;27;20047;-69
2021/05/03 13:46:43;;;;;;;4.15;3.25;;;;;;;;;;5131762;27;20050;-70
2021/05/03 13:49:09;;;;;;;3.88;2.40;;;;;;;;;;5145322;27;20055;-69
2021/05/03 13:51:35;;;;;;;4.13;3.10;;;;;;;;;;5140370;27;20360;-70
2021/05/03 13:54:02;;;;;;;4.28;2.72;;;;;;;;;;5142299;27;20183;-69
2021/05/03 13:56:28;;;;;;;3.90;2.70;;;;;;;;;;5145756;27;20078;-69
2021/05/03 13:58:55;;;;;;;3.63;2.42;;;;;;;;;;5143413;27;20058;-68
2021/05/03 14:01:21;;;;;;;3.78;2.92;;;;;;;;;;5124165;27;20071;-70
2021/05/03 14:03:47;;;;;;;5.43;2.92;;;;;;;;;;5131483;27;20039;-69
2021/05/03 14:06:16;;;;;;;4.68;2.80;;;;;;;;;;5132972;27;20054;-69
2021/05/03 14:08:42;;;;;;;4.18;2.90;;;;;;;;;;5131413;27;20047;-68
2021/05/03 14:11:08;;;;;;;4.68;2.55;;;;;;;;;;5132198;27;20143;-68
2021/05/03 14:13:34;;;;;;;4.65;2.72;;;;;;;;;;5132391;27;20063;-68
2021/05/03 14:16:02;;;;;;;4.97;2.55;;;;;;;;;;5133096;27;20050;-68
2021/05/03 14:18:28;;;;;;;5.38;2.90;;;;;;;;;;5132131;27;20047;-68
2021/05/03 14:20:54;;;;;;;5.85;3.13;;;;;;;;;;5140562;27;20131;-68
2021/05/03 14:23:20;;;;;;;4.03;2.45;;;;;;;;;;5141270;27;20047;-69
2021/05/03 14:25:49;;;;;;;4.50;2.88;;;;;;;;;;5134751;27;20082;-68
2021/05/03 14:28:20;;;;;;;7.35;3.05;;;;;;;;;;5140197;27;20049;-69
2021/05/03 14:30:49;;;;;;;3.65;2.70;;;;;;;;;;5122965;27;20139;-69
2021/05/03 14:33:18;;;;;;;4.13;2.80;;;;;;;;;;5147075;27;20140;-69
2021/05/03 14:35:45;;;;;;;4.03;2.60;;;;;;;;;;5143630;27;20074;-70
2021/05/03 14:38:11;;;;;;;3.97;2.88;;;;;;;;;;5139108;27;20050;-70
2021/05/03 14:40:38;;;;;;;3.55;2.20;;;;;;;;;;5133601;27;20617;-69
2021/05/03 14:43:06;;;;;;;3.58;2.80;;;;;;;;;;5134964;27;20042;-69
2021/05/03 14:45:38;;;;;;;3.22;2.55;;;;;;;;;;5133189;27;20601;-70
2021/05/03 14:48:09;;;;;;;4.95;2.70;;;;;;;;;;5133554;27;20043;-69
2021/05/03 14:50:50;;;;;;;8.73;3.05;;;;;;;;;;5133319;27;20523;-69
2021/05/03 14:53:31;;;;;;;5.47;2.42;;;;;;;;;;5135432;27;20043;-69
2021/05/03 14:55:57;;;;;;;5.50;2.55;;;;;;;;;;5133542;27;20403;-69
2021/05/03 14:58:23;;;;;;;4.15;2.40;;;;;;;;;;5133569;27;20077;-70
2021/05/03 15:00:49;;;;;;;4.05;2.80;;;;;;;;;;5131497;27;20043;-70
2021/05/03 15:03:15;;;;;;;4.88;3.10;;;;;;;;;;5123638;27;20095;-71
2021/05/03 15:05:44;;;;;;;4.55;2.70;;;;;;;;;;5131375;27;20043;-71